createdAt,value
2023-04-27T00:01:13.253Z,6.80
2023-04-27T00:04:16.724Z,6.90
2023-04-27T00:07:20.153Z,4.77
2023-04-27T00:10:24.867Z,5.70
2023-04-27T00:13:28.292Z,5.60
2023-04-27T00:16:31.313Z,5.70
2023-04-27T00:19:34.767Z,6.13
2023-04-27T00:22:37.719Z,5.80
2023-04-27T00:25:42.166Z,4.43
2023-04-27T00:28:45.214Z,5.87
2023-04-27T00:31:48.144Z,6.20
2023-04-27T00:34:51.179Z,7.43
2023-04-27T00:37:55.244Z,5.47
2023-04-27T00:41:04.007Z,5.67
2023-04-27T00:44:07.229Z,5.37
2023-04-27T00:47:11.979Z,5.47
2023-04-27T00:50:16.207Z,7.87
2023-04-27T00:53:19.688Z,5.37
2023-04-27T00:56:24.113Z,6.53
2023-04-27T00:59:27.274Z,5.83
2023-04-27T01:02:31.178Z,6.73
2023-04-27T01:05:34.842Z,5.07
2023-04-27T01:08:37.852Z,6.93
2023-04-27T01:11:42.084Z,5.53
2023-04-27T01:14:44.998Z,5.73
2023-04-27T01:17:48.664Z,5.23
2023-04-27T01:20:51.713Z,5.53
2023-04-27T01:23:56.157Z,5.97
2023-04-27T01:26:59.097Z,6.47
2023-04-27T01:30:01.994Z,7.07
2023-04-27T01:33:05.142Z,6.00
2023-04-27T01:36:09.240Z,5.30
2023-04-27T01:39:13.778Z,5.40
2023-04-27T01:42:17.087Z,7.27
2023-04-27T01:45:20.005Z,6.03
2023-04-27T01:48:23.943Z,6.07
2023-04-27T01:51:27.636Z,7.17
2023-04-27T01:54:31.869Z,5.50
2023-04-27T01:57:34.758Z,5.60
2023-04-27T02:00:37.655Z,5.60
2023-04-27T02:03:40.897Z,5.37
2023-04-27T02:06:43.993Z,5.57
2023-04-27T02:09:48.250Z,6.13
2023-04-27T02:12:51.276Z,7.23
2023-04-27T02:15:56.059Z,4.80
2023-04-27T02:18:59.192Z,4.77
2023-04-27T02:22:02.365Z,5.87
2023-04-27T02:25:07.574Z,5.93
2023-04-27T02:28:10.451Z,5.07
2023-04-27T02:31:14.113Z,7.60
2023-04-27T02:34:17.026Z,7.53
2023-04-27T02:37:19.902Z,6.17
2023-04-27T02:40:24.148Z,6.53
2023-04-27T02:43:27.108Z,5.37
2023-04-27T02:46:30.066Z,6.33
2023-04-27T02:49:33.033Z,5.43
2023-04-27T02:52:35.926Z,5.33
2023-04-27T02:55:40.338Z,5.87
2023-04-27T02:58:43.217Z,6.23
2023-04-27T03:01:46.593Z,5.87
2023-04-27T03:04:53.725Z,6.60
2023-04-27T03:07:56.612Z,5.73
2023-04-27T03:11:00.863Z,13.20
2023-04-27T03:14:03.831Z,6.13
2023-04-27T03:17:06.724Z,6.53
2023-04-27T03:20:10.654Z,6.30
2023-04-27T03:23:13.533Z,6.57
2023-04-27T03:26:18.624Z,6.87
2023-04-27T03:29:21.565Z,11.93
2023-04-27T03:32:24.499Z,6.03
2023-04-27T03:35:27.971Z,6.67
2023-04-27T03:38:31.122Z,6.20
2023-04-27T03:41:35.385Z,7.13
2023-04-27T03:44:38.252Z,5.57
2023-04-27T03:47:41.271Z,6.87
2023-04-27T03:50:44.383Z,6.80
2023-04-27T03:53:47.283Z,6.53
2023-04-27T03:56:52.433Z,7.47
2023-04-27T03:59:55.620Z,9.73
2023-04-27T04:02:58.690Z,6.43
2023-04-27T04:06:03.643Z,6.70
2023-04-27T04:09:06.845Z,6.10
2023-04-27T04:12:11.062Z,6.43
2023-04-27T04:15:14.230Z,6.43
2023-04-27T04:18:17.141Z,6.20
2023-04-27T04:21:20.066Z,7.97
2023-04-27T04:24:22.961Z,7.23
2023-04-27T04:27:27.187Z,6.20
2023-04-27T04:30:30.088Z,7.10
2023-04-27T04:33:33.042Z,6.77
2023-04-27T04:36:36.194Z,8.90
2023-04-27T04:39:39.102Z,6.30
2023-04-27T04:42:43.323Z,6.87
2023-04-27T04:45:46.799Z,5.67
2023-04-27T04:48:49.681Z,6.77
2023-04-27T04:51:52.577Z,10.07
2023-04-27T04:54:55.581Z,7.60
2023-04-27T04:57:59.843Z,7.70
2023-04-27T05:01:02.836Z,11.70
2023-04-27T05:04:06.298Z,7.57
2023-04-27T05:07:12.581Z,7.70
2023-04-27T05:10:17.194Z,11.80
2023-04-27T05:13:22.546Z,11.73
2023-04-27T05:16:26.441Z,8.20
2023-04-27T05:19:31.055Z,7.33
2023-04-27T05:22:33.996Z,7.73
2023-04-27T05:25:41.509Z,7.10
2023-04-27T05:28:47.052Z,8.53
2023-04-27T05:31:50.059Z,9.73
2023-04-27T05:34:53.014Z,11.07
2023-04-27T05:37:56.375Z,10.60
2023-04-27T05:41:00.034Z,9.23
2023-04-27T05:44:04.288Z,7.93
2023-04-27T05:47:07.246Z,11.63
2023-04-27T05:50:10.868Z,17.10
2023-04-27T05:53:13.764Z,19.07
2023-04-27T05:56:16.684Z,10.97
2023-04-27T05:59:21.873Z,6.57
2023-04-27T06:02:25.005Z,11.80
2023-04-27T06:05:28.643Z,8.67
2023-04-27T06:08:31.740Z,6.67
2023-04-27T06:11:34.769Z,6.47
2023-04-27T06:14:39.096Z,8.33
2023-04-27T06:17:44.184Z,6.97
2023-04-27T06:20:47.167Z,7.83
2023-04-27T06:23:50.229Z,8.00
2023-04-27T06:26:53.236Z,7.33
2023-04-27T06:29:57.538Z,5.70
2023-04-27T06:33:00.539Z,7.83
2023-04-27T06:36:03.459Z,6.23
2023-04-27T06:39:06.423Z,6.67
2023-04-27T06:42:09.310Z,7.00
2023-04-27T06:45:13.782Z,6.73
2023-04-27T06:48:17.016Z,9.33
2023-04-27T06:51:20.021Z,7.17
2023-04-27T06:54:22.982Z,7.00
2023-04-27T06:57:25.948Z,6.60
2023-04-27T07:00:30.226Z,7.17
2023-04-27T07:03:37.215Z,10.73
2023-04-27T07:06:40.480Z,7.97
2023-04-27T07:09:43.529Z,7.43
2023-04-27T07:12:46.533Z,8.27
2023-04-27T07:15:57.724Z,7.33
2023-04-27T07:19:01.287Z,9.63
2023-04-27T07:22:04.431Z,6.37
2023-04-27T07:25:08.284Z,8.00
2023-04-27T07:28:11.195Z,7.63
2023-04-27T07:31:16.100Z,8.37
2023-04-27T07:34:19.022Z,8.43
2023-04-27T07:37:21.993Z,7.37
2023-04-27T07:40:25.002Z,6.37
2023-04-27T07:43:28.096Z,6.67
2023-04-27T07:46:32.810Z,6.87
2023-04-27T07:49:36.000Z,6.50
2023-04-27T07:52:38.925Z,7.33
2023-04-27T07:55:43.812Z,8.43
2023-04-27T07:58:46.992Z,7.37
2023-04-27T08:01:51.272Z,5.53
2023-04-27T08:04:54.477Z,6.57
2023-04-27T08:07:58.497Z,6.00
2023-04-27T08:11:01.456Z,5.43
2023-04-27T08:14:04.395Z,6.47
2023-04-27T08:17:08.664Z,8.73
2023-04-27T08:20:12.744Z,8.03
2023-04-27T08:23:16.079Z,8.80
2023-04-27T08:26:18.936Z,5.77
2023-04-27T08:29:27.986Z,5.93
2023-04-27T08:32:33.347Z,5.87
2023-04-27T08:35:36.333Z,5.63
2023-04-27T08:38:39.228Z,4.70
2023-04-27T08:41:43.899Z,6.43
2023-04-27T08:44:46.803Z,5.00
2023-04-27T08:47:51.383Z,5.27
2023-04-27T08:50:56.865Z,5.00
2023-04-27T08:54:00.185Z,5.50
2023-04-27T08:57:03.150Z,4.07
2023-04-27T09:00:12.900Z,5.20
2023-04-27T09:03:26.139Z,4.87
2023-04-27T09:06:32.964Z,5.60
2023-04-27T09:09:35.877Z,5.07
2023-04-27T09:12:39.004Z,4.50
2023-04-27T09:15:48.278Z,5.90
2023-04-27T09:18:53.324Z,6.97
2023-04-27T09:22:05.453Z,4.97
2023-04-27T09:25:08.832Z,5.30
2023-04-27T09:28:15.582Z,4.23
2023-04-27T09:31:18.826Z,4.97
2023-04-27T09:34:23.188Z,5.27
2023-04-27T09:37:27.041Z,7.67
2023-04-27T09:40:31.866Z,4.40
2023-04-27T09:43:35.167Z,5.67
2023-04-27T09:46:38.623Z,3.90
2023-04-27T09:49:43.059Z,4.43
2023-04-27T09:52:47.248Z,3.23
2023-04-27T09:56:00.798Z,6.60
2023-04-27T09:59:24.692Z,3.40
2023-04-27T10:02:29.813Z,2.77
2023-04-27T10:05:51.466Z,3.63
2023-04-27T10:08:55.220Z,4.87
2023-04-27T10:11:58.285Z,4.93
2023-04-27T10:15:12.203Z,3.27
2023-04-27T10:18:25.986Z,3.70
2023-04-27T10:21:30.770Z,3.00
2023-04-27T10:24:37.624Z,2.50
2023-04-27T10:27:41.540Z,2.97
2023-04-27T10:30:47.207Z,3.43
2023-04-27T10:33:51.302Z,2.87
2023-04-27T10:37:06.572Z,2.87
2023-04-27T10:40:14.601Z,5.60
2023-04-27T10:43:26.430Z,3.00
2023-04-27T10:46:29.393Z,3.70
2023-04-27T10:49:33.580Z,2.70
2023-04-27T10:52:37.913Z,3.40
2023-04-27T10:55:40.941Z,8.40
2023-04-27T10:58:49.310Z,3.13
2023-04-27T11:01:52.367Z,9.03
2023-04-27T11:04:56.881Z,3.43
2023-04-27T11:08:09.026Z,3.30
2023-04-27T11:11:16.727Z,2.63
2023-04-27T11:14:21.721Z,3.23
2023-04-27T11:17:30.581Z,5.23
2023-04-27T11:20:33.575Z,10.17
2023-04-27T11:23:38.691Z,2.43
2023-04-27T11:26:41.884Z,5.10
2023-04-27T11:29:45.741Z,2.77
2023-04-27T11:32:48.819Z,6.20
2023-04-27T11:35:52.184Z,45.30
2023-04-27T11:39:00.738Z,19.23
2023-04-27T11:42:18.125Z,3.63
2023-04-27T11:45:26.366Z,2.70
2023-04-27T11:48:29.516Z,3.60
2023-04-27T11:51:33.471Z,6.90
2023-04-27T11:54:38.781Z,2.90
2023-04-27T11:57:41.739Z,2.43
2023-04-27T12:00:44.834Z,4.23
2023-04-27T12:03:48.036Z,3.80
2023-04-27T12:06:51.103Z,3.07
2023-04-27T12:10:00.698Z,2.67
2023-04-27T12:13:04.855Z,2.57
2023-04-27T12:16:08.042Z,2.37
2023-04-27T12:19:10.894Z,2.37
2023-04-27T12:22:13.767Z,1.90
2023-04-27T12:25:19.699Z,7.27
2023-04-27T12:28:23.403Z,10.33
2023-04-27T12:31:27.877Z,9.73
2023-04-27T12:34:30.925Z,4.40
2023-04-27T12:37:33.808Z,2.77
2023-04-27T12:40:38.504Z,2.73
2023-04-27T12:43:42.713Z,2.63
2023-04-27T12:46:48.155Z,2.67
2023-04-27T12:49:51.210Z,3.07
2023-04-27T12:52:54.206Z,5.93
2023-04-27T12:56:00.713Z,2.87
2023-04-27T12:59:03.814Z,6.10
2023-04-27T13:02:07.599Z,2.70
2023-04-27T13:05:11.900Z,3.07
2023-04-27T13:08:14.940Z,3.30
2023-04-27T13:11:19.640Z,2.50
2023-04-27T13:14:22.865Z,2.20
2023-04-27T13:17:26.029Z,2.43
2023-04-27T13:20:29.103Z,6.50
2023-04-27T13:23:32.160Z,1.90
2023-04-27T13:26:36.412Z,2.37
2023-04-27T13:29:39.313Z,1.60
2023-04-27T13:32:42.248Z,3.43
2023-04-27T13:35:45.550Z,3.07
2023-04-27T13:38:49.068Z,1.63
2023-04-27T13:41:54.070Z,2.50
2023-04-27T13:44:57.682Z,3.73
2023-04-27T13:48:01.122Z,4.23
2023-04-27T13:51:04.449Z,2.37
2023-04-27T13:54:07.703Z,2.00
2023-04-27T13:57:12.350Z,3.17
2023-04-27T14:00:16.493Z,3.63
2023-04-27T14:03:19.918Z,2.00
2023-04-27T14:06:23.554Z,1.83
2023-04-27T14:09:27.301Z,2.20
2023-04-27T14:12:32.404Z,8.40
2023-04-27T14:15:37.274Z,1.70
2023-04-27T14:18:40.580Z,1.40
2023-04-27T14:21:43.872Z,2.33
2023-04-27T14:24:47.200Z,2.77
2023-04-27T14:27:51.880Z,3.73
2023-04-27T14:30:55.162Z,2.10
2023-04-27T14:33:58.418Z,2.70
2023-04-27T14:37:01.706Z,1.80
2023-04-27T14:40:06.879Z,2.20
2023-04-27T14:43:11.520Z,2.03
2023-04-27T14:46:20.870Z,2.57
2023-04-27T14:49:24.709Z,1.93
2023-04-27T14:52:27.975Z,1.97
2023-04-27T14:55:31.552Z,3.47
2023-04-27T14:58:36.405Z,4.73
2023-04-27T15:01:39.694Z,2.20
2023-04-27T15:04:43.009Z,5.87
2023-04-27T15:07:46.315Z,2.30
2023-04-27T15:10:49.776Z,2.90
2023-04-27T15:13:54.383Z,4.90
2023-04-27T15:16:57.683Z,2.40
2023-04-27T15:20:00.944Z,1.83
2023-04-27T15:23:04.243Z,2.73
2023-04-27T15:26:07.508Z,3.67
2023-04-27T15:29:12.336Z,2.40
2023-04-27T15:32:15.759Z,3.23
2023-04-27T15:35:19.058Z,6.00
2023-04-27T15:38:22.962Z,4.03
2023-04-27T15:41:26.247Z,2.53
2023-04-27T15:44:30.943Z,1.63
2023-04-27T15:47:34.247Z,1.90
2023-04-27T15:50:37.672Z,1.63
2023-04-27T15:53:40.928Z,1.80
2023-04-27T15:56:44.210Z,1.60
2023-04-27T15:59:48.824Z,1.53
2023-04-27T16:02:52.349Z,2.00
2023-04-27T16:05:55.980Z,1.80
2023-04-27T16:08:59.291Z,2.07
2023-04-27T16:12:03.792Z,2.10
2023-04-27T16:15:11.335Z,2.00
2023-04-27T16:18:15.035Z,1.70
2023-04-27T16:21:18.283Z,1.90
2023-04-27T16:24:21.822Z,1.27
2023-04-27T16:27:25.094Z,1.93
2023-04-27T16:30:29.837Z,1.40
2023-04-27T16:33:33.381Z,1.43
2023-04-27T16:36:36.918Z,3.63
2023-04-27T16:39:40.209Z,1.67
2023-04-27T16:42:43.500Z,4.90
2023-04-27T16:45:48.140Z,5.33
2023-04-27T16:48:51.423Z,2.20
2023-04-27T16:51:56.225Z,1.67
2023-04-27T16:54:59.516Z,1.10
2023-04-27T16:58:02.960Z,1.43
2023-04-27T17:01:07.794Z,2.20
2023-04-27T17:04:12.450Z,1.20
2023-04-27T17:07:15.880Z,1.80
2023-04-27T17:10:19.194Z,1.37
2023-04-27T17:13:22.444Z,1.07
2023-04-27T17:16:27.235Z,1.37
2023-04-27T17:19:30.910Z,1.60
2023-04-27T17:22:34.186Z,1.13
2023-04-27T17:25:37.489Z,1.30
2023-04-27T17:28:40.753Z,2.80
2023-04-27T17:31:45.853Z,2.30
2023-04-27T17:34:49.234Z,2.53
2023-04-27T17:37:53.449Z,2.77
2023-04-27T17:40:56.753Z,3.20
2023-04-27T17:44:00.178Z,2.33
2023-04-27T17:47:04.823Z,6.93
2023-04-27T17:50:08.898Z,4.33
2023-04-27T17:53:12.842Z,4.53
2023-04-27T17:56:16.148Z,5.03
2023-04-27T17:59:19.458Z,7.13
2023-04-27T18:02:24.220Z,7.47
2023-04-27T18:05:27.625Z,8.20
2023-04-27T18:08:30.978Z,6.20
2023-04-27T18:11:35.307Z,4.03
2023-04-27T18:14:38.649Z,6.53
2023-04-27T18:17:43.383Z,4.20
2023-04-27T18:20:47.721Z,3.33
2023-04-27T18:23:51.034Z,3.00
2023-04-27T18:26:54.373Z,2.97
2023-04-27T18:29:57.721Z,3.53
2023-04-27T18:33:02.355Z,4.17
2023-04-27T18:36:05.990Z,2.87
2023-04-27T18:39:09.288Z,3.43
2023-04-27T18:42:12.554Z,2.67
2023-04-27T18:45:15.864Z,3.83
2023-04-27T18:48:20.553Z,5.87
2023-04-27T18:51:26.169Z,4.33
2023-04-27T18:54:29.590Z,3.50
2023-04-27T18:57:33.003Z,3.30
2023-04-27T19:00:36.276Z,8.23
2023-04-27T19:03:41.090Z,3.37
2023-04-27T19:06:44.907Z,3.40
2023-04-27T19:09:48.773Z,4.40
2023-04-27T19:12:53.037Z,5.13
2023-04-27T19:15:56.361Z,11.93
2023-04-27T19:19:01.100Z,11.43
2023-04-27T19:22:05.287Z,8.80
2023-04-27T19:25:10.659Z,8.73
2023-04-27T19:28:15.052Z,10.20
2023-04-27T19:31:18.479Z,10.37
2023-04-27T19:34:23.323Z,10.17
2023-04-27T19:37:27.111Z,5.47
2023-04-27T19:40:30.426Z,5.67
2023-04-27T19:43:33.725Z,6.77
2023-04-27T19:46:37.071Z,9.57
2023-04-27T19:49:41.773Z,8.47
2023-04-27T19:52:45.611Z,12.60
2023-04-27T19:55:48.878Z,12.60
2023-04-27T19:58:52.203Z,11.70
2023-04-27T20:01:55.799Z,13.40
2023-04-27T20:05:00.696Z,11.57
2023-04-27T20:08:04.319Z,14.40
2023-04-27T20:11:07.735Z,12.47
2023-04-27T20:14:10.990Z,11.73
2023-04-27T20:17:14.284Z,19.03
2023-04-27T20:20:19.237Z,11.37
2023-04-27T20:23:22.511Z,16.20
2023-04-27T20:26:26.116Z,14.23
2023-04-27T20:29:29.401Z,16.63
2023-04-27T20:32:32.674Z,9.53
2023-04-27T20:35:37.428Z,13.67
2023-04-27T20:38:40.698Z,9.10
2023-04-27T20:41:44.262Z,8.53
2023-04-27T20:44:48.485Z,9.93
2023-04-27T20:47:52.177Z,9.17
2023-04-27T20:50:57.143Z,9.30
2023-04-27T20:54:00.765Z,17.03
2023-04-27T20:57:08.585Z,12.23
2023-04-27T21:00:12.920Z,11.57
2023-04-27T21:03:16.337Z,16.13
2023-04-27T21:06:21.188Z,18.80
2023-04-27T21:09:24.566Z,13.80
2023-04-27T21:12:27.876Z,12.43
2023-04-27T21:15:31.376Z,14.17
2023-04-27T21:18:34.649Z,8.10
2023-04-27T21:21:39.390Z,8.73
2023-04-27T21:24:42.650Z,7.33
2023-04-27T21:27:46.130Z,6.37
2023-04-27T21:30:49.491Z,7.20
2023-04-27T21:33:53.033Z,6.80
2023-04-27T21:36:58.430Z,7.50
2023-04-27T21:40:01.700Z,12.23
2023-04-27T21:43:06.202Z,6.50
2023-04-27T21:46:09.542Z,7.37
2023-04-27T21:49:12.860Z,6.87
2023-04-27T21:52:17.981Z,4.87
2023-04-27T21:55:21.282Z,6.07
2023-04-27T21:58:24.699Z,6.13
2023-04-27T22:01:28.044Z,4.37
2023-04-27T22:04:31.591Z,5.37
2023-04-27T22:07:36.398Z,4.07
2023-04-27T22:10:39.698Z,3.90
2023-04-27T22:13:43.050Z,4.03
2023-04-27T22:16:46.348Z,4.17
2023-04-27T22:19:49.640Z,4.83
2023-04-27T22:22:54.509Z,3.77
2023-04-27T22:25:57.789Z,4.20
2023-04-27T22:29:01.058Z,3.33
2023-04-27T22:32:04.555Z,4.17
2023-04-27T22:35:24.807Z,3.30
2023-04-27T22:38:31.518Z,3.17
2023-04-27T22:41:34.856Z,4.00
2023-04-27T22:44:38.129Z,4.17
2023-04-27T22:47:41.880Z,4.23
2023-04-27T22:50:45.175Z,3.93
2023-04-27T22:53:50.398Z,3.93
2023-04-27T22:56:53.876Z,4.67
2023-04-27T22:59:57.151Z,6.03
2023-04-27T23:03:00.554Z,4.37
2023-04-27T23:06:05.070Z,4.00
2023-04-27T23:09:09.721Z,3.53
2023-04-27T23:12:13.062Z,4.70
2023-04-27T23:15:16.459Z,3.13
2023-04-27T23:18:19.776Z,4.17
2023-04-27T23:21:23.227Z,3.07
2023-04-27T23:24:28.151Z,3.10
2023-04-27T23:27:31.439Z,3.27
2023-04-27T23:30:34.713Z,2.67
2023-04-27T23:33:38.240Z,2.73
2023-04-27T23:36:41.710Z,3.00
2023-04-27T23:39:46.404Z,2.70
2023-04-27T23:42:51.563Z,3.10
2023-04-27T23:45:55.804Z,2.50
2023-04-27T23:48:59.136Z,3.07
2023-04-27T23:52:02.513Z,2.67
2023-04-27T23:55:07.824Z,2.67
2023-04-27T23:58:11.104Z,2.97
